Time;durP1;ratioP1;P1;durP2;ratioP2;P2;SDS_P1;SDS_P2;PMS_P1;PMS_P2;Temp;Humidity;BMP_temperature;BMP_pressure;BME280_temperature;BME280_humidity;BME280_pressure;Samples;Min_cycle;Max_cycle;Signal;HPM_P1;HPM_P2
2023/09/03 00:00:26;;;;;;;4.18;2.67;;;;;;;;;;5064368;28;20504;-58
2023/09/03 00:02:55;;;;;;;5.15;2.50;;;;;;;;;;5058168;28;20541;-58
2023/09/03 00:05:21;;;;;;;3.22;2.17;;;;;;;;;;5058648;28;20037;-58
2023/09/03 00:07:49;;;;;;;3.78;2.38;;;;;;;;;;5060438;28;20045;-58
2023/09/03 00:10:18;;;;;;;2.75;1.70;;;;;;;;;;5061924;28;20033;-58
2023/09/03 00:12:45;;;;;;;53.90;3.90;;;;;;;;;;5060178;28;20134;-58
2023/09/03 00:15:12;;;;;;;30.33;4.78;;;;;;;;;;5060743;28;20041;-58
2023/09/03 00:17:39;;;;;;;5.93;4.50;;;;;;;;;;5061535;28;20161;-58
2023/09/03 00:20:06;;;;;;;7.18;5.05;;;;;;;;;;5059531;28;20044;-58
2023/09/03 00:22:32;;;;;;;5.55;3.95;;;;;;;;;;5060300;28;20392;-58
2023/09/03 00:24:58;;;;;;;5.60;4.00;;;;;;;;;;5059125;28;20462;-58
2023/09/03 00:27:24;;;;;;;4.28;2.70;;;;;;;;;;5060209;28;20481;-58
2023/09/03 00:29:50;;;;;;;4.40;2.95;;;;;;;;;;5066695;28;20089;-59
2023/09/03 00:32:17;;;;;;;4.07;2.95;;;;;;;;;;5065030;28;20269;-58
2023/09/03 00:34:43;;;;;;;4.07;2.90;;;;;;;;;;5066886;28;20041;-58
2023/09/03 00:37:09;;;;;;;4.47;2.53;;;;;;;;;;5067952;28;20048;-58
2023/09/03 00:39:35;;;;;;;3.90;2.47;;;;;;;;;;5073456;28;20097;-59
2023/09/03 00:42:01;;;;;;;4.32;2.85;;;;;;;;;;5067709;28;20116;-58
2023/09/03 00:44:27;;;;;;;4.57;2.88;;;;;;;;;;5069266;28;20041;-58
2023/09/03 00:46:54;;;;;;;4.43;2.97;;;;;;;;;;5071757;28;20039;-58
2023/09/03 00:49:21;;;;;;;3.80;2.60;;;;;;;;;;5069804;28;20147;-58
2023/09/03 00:51:47;;;;;;;5.70;2.70;;;;;;;;;;5098241;28;20123;-58
2023/09/03 00:54:13;;;;;;;6.05;2.97;;;;;;;;;;5061535;28;20530;-58
2023/09/03 00:56:40;;;;;;;11.45;2.50;;;;;;;;;;5060006;28;20409;-58
2023/09/03 00:59:06;;;;;;;3.03;1.98;;;;;;;;;;5063306;28;20435;-58
2023/09/03 01:01:33;;;;;;;3.42;2.40;;;;;;;;;;5067736;28;20139;-58
2023/09/03 01:03:59;;;;;;;2.70;1.70;;;;;;;;;;5067904;28;20467;-58
2023/09/03 01:06:25;;;;;;;4.93;2.00;;;;;;;;;;5069791;28;20048;-58
2023/09/03 01:08:52;;;;;;;3.40;1.90;;;;;;;;;;5071502;28;20058;-58
2023/09/03 01:11:23;;;;;;;3.88;2.83;;;;;;;;;;5067409;28;20481;-58
2023/09/03 01:13:54;;;;;;;4.07;2.92;;;;;;;;;;5071584;28;20044;-58
2023/09/03 01:16:33;;;;;;;5.50;3.20;;;;;;;;;;5071661;28;20176;-58
2023/09/03 01:19:01;;;;;;;9.15;4.40;;;;;;;;;;5069053;28;20047;-59
2023/09/03 01:21:38;;;;;;;8.80;4.60;;;;;;;;;;5059756;28;20164;-58
2023/09/03 01:24:13;;;;;;;8.45;4.85;;;;;;;;;;5069238;28;20077;-58
2023/09/03 01:26:45;;;;;;;10.48;6.65;;;;;;;;;;5067067;28;20123;-58
2023/09/03 01:29:13;;;;;;;9.65;6.82;;;;;;;;;;5071345;28;20080;-58
2023/09/03 01:31:40;;;;;;;7.63;5.70;;;;;;;;;;5071406;28;20040;-58
2023/09/03 01:34:06;;;;;;;8.13;5.35;;;;;;;;;;5068481;28;20032;-58
2023/09/03 01:36:34;;;;;;;6.95;5.25;;;;;;;;;;5070181;28;20035;-58
2023/09/03 01:39:03;;;;;;;30.63;8.32;;;;;;;;;;5070322;28;20144;-58
2023/09/03 01:41:34;;;;;;;32.67;9.60;;;;;;;;;;5066975;28;20044;-58
2023/09/03 01:44:02;;;;;;;14.15;9.50;;;;;;;;;;5069944;28;20572;-58
2023/09/03 01:46:41;;;;;;;25.67;9.95;;;;;;;;;;5063731;28;20111;-58
2023/09/03 01:49:10;;;;;;;22.75;8.68;;;;;;;;;;5058701;28;20052;-58
2023/09/03 01:51:38;;;;;;;61.03;10.02;;;;;;;;;;5062627;28;20033;-58
2023/09/03 01:54:04;;;;;;;39.95;10.18;;;;;;;;;;5069504;28;20466;-58
2023/09/03 01:56:31;;;;;;;18.83;10.00;;;;;;;;;;5068614;28;20045;-58
2023/09/03 01:58:59;;;;;;;58.70;9.20;;;;;;;;;;5063828;28;20126;-59
2023/09/03 02:01:30;;;;;;;15.52;8.80;;;;;;;;;;5071372;28;20119;-59
2023/09/03 02:03:57;;;;;;;9.52;8.23;;;;;;;;;;5069298;28;20048;-58
2023/09/03 02:06:23;;;;;;;12.73;7.65;;;;;;;;;;5071076;28;20043;-59
2023/09/03 02:08:52;;;;;;;9.73;8.10;;;;;;;;;;5071823;28;20496;-58
2023/09/03 02:11:18;;;;;;;14.50;9.07;;;;;;;;;;5070965;28;20054;-58
2023/09/03 02:13:44;;;;;;;25.52;7.93;;;;;;;;;;5063815;28;20131;-58
2023/09/03 02:16:10;;;;;;;80.15;9.88;;;;;;;;;;5066081;28;20507;-57
2023/09/03 02:18:37;;;;;;;18.42;10.25;;;;;;;;;;5063150;28;20048;-57
2023/09/03 02:21:03;;;;;;;42.00;9.82;;;;;;;;;;5061615;28;20051;-58
2023/09/03 02:23:29;;;;;;;12.25;9.20;;;;;;;;;;5059835;28;20460;-58
2023/09/03 02:26:02;;;;;;;14.20;9.30;;;;;;;;;;5061152;28;20082;-58
2023/09/03 02:28:28;;;;;;;23.20;9.07;;;;;;;;;;5058804;28;20049;-58
2023/09/03 02:30:54;;;;;;;8.63;7.47;;;;;;;;;;5063001;28;20679;-58
2023/09/03 02:33:21;;;;;;;9.20;7.35;;;;;;;;;;5061819;28;20498;-58
2023/09/03 02:35:47;;;;;;;9.15;7.72;;;;;;;;;;5067173;28;20111;-58
2023/09/03 02:38:14;;;;;;;8.40;7.05;;;;;;;;;;5062903;28;20040;-58
2023/09/03 02:40:40;;;;;;;7.43;6.32;;;;;;;;;;5058862;28;20092;-58
2023/09/03 02:43:06;;;;;;;7.80;6.38;;;;;;;;;;5060286;28;20094;-58
2023/09/03 02:45:32;;;;;;;5.70;4.70;;;;;;;;;;5070766;28;20494;-58
2023/09/03 02:47:58;;;;;;;5.95;5.10;;;;;;;;;;5059529;28;20052;-58
2023/09/03 02:50:24;;;;;;;7.88;5.20;;;;;;;;;;5065613;28;20088;-58
2023/09/03 02:52:51;;;;;;;4.88;3.67;;;;;;;;;;5060688;28;20082;-59
2023/09/03 02:55:17;;;;;;;4.80;3.42;;;;;;;;;;5060806;28;20047;-58
2023/09/03 02:57:43;;;;;;;4.85;3.67;;;;;;;;;;5062277;28;20387;-58
2023/09/03 03:00:09;;;;;;;8.80;4.38;;;;;;;;;;5066961;28;20098;-58
2023/09/03 03:02:36;;;;;;;28.23;6.03;;;;;;;;;;5060562;28;20172;-58
2023/09/03 03:05:03;;;;;;;48.40;6.32;;;;;;;;;;5060140;28;20131;-58
2023/09/03 03:07:29;;;;;;;39.97;5.13;;;;;;;;;;5062830;28;20689;-58
2023/09/03 03:09:55;;;;;;;4.60;3.80;;;;;;;;;;5057032;28;20509;-58
2023/09/03 03:12:21;;;;;;;10.55;4.07;;;;;;;;;;5061419;28;20365;-58
2023/09/03 03:14:49;;;;;;;5.32;3.58;;;;;;;;;;5063528;28;20040;-58
2023/09/03 03:17:15;;;;;;;23.60;4.35;;;;;;;;;;5063220;28;20052;-59
2023/09/03 03:19:41;;;;;;;12.15;5.35;;;;;;;;;;5068201;28;20048;-58
2023/09/03 03:22:07;;;;;;;31.38;4.18;;;;;;;;;;5067442;28;20033;-58
2023/09/03 03:24:33;;;;;;;14.02;4.15;;;;;;;;;;5065841;28;20087;-58
2023/09/03 03:27:00;;;;;;;34.90;5.28;;;;;;;;;;5061234;28;20128;-58
2023/09/03 03:29:28;;;;;;;55.10;6.22;;;;;;;;;;5066729;28;20040;-58
2023/09/03 03:31:54;;;;;;;26.48;5.18;;;;;;;;;;5069941;28;20105;-58
2023/09/03 03:34:20;;;;;;;10.80;5.35;;;;;;;;;;5069675;28;20048;-58
2023/09/03 03:36:46;;;;;;;21.35;5.38;;;;;;;;;;5057412;28;20168;-58
2023/09/03 03:39:13;;;;;;;31.73;6.00;;;;;;;;;;5059409;28;20376;-58
2023/09/03 03:41:39;;;;;;;7.53;5.30;;;;;;;;;;5060832;28;20072;-57
2023/09/03 03:44:05;;;;;;;6.47;5.00;;;;;;;;;;5057394;28;20090;-58
2023/09/03 03:46:31;;;;;;;6.82;5.38;;;;;;;;;;5063434;28;20052;-59
2023/09/03 03:48:59;;;;;;;5.80;4.72;;;;;;;;;;5068869;28;20098;-58
2023/09/03 03:51:25;;;;;;;5.38;4.18;;;;;;;;;;5070257;28;20075;-59
2023/09/03 03:53:51;;;;;;;6.25;4.43;;;;;;;;;;5069792;28;20044;-58
2023/09/03 03:56:18;;;;;;;5.72;4.53;;;;;;;;;;5063356;28;20044;-58
2023/09/03 03:58:44;;;;;;;6.22;4.88;;;;;;;;;;5070648;28;20040;-58
2023/09/03 04:01:12;;;;;;;5.28;4.28;;;;;;;;;;5069088;28;20486;-58
2023/09/03 04:03:38;;;;;;;5.63;4.45;;;;;;;;;;5068490;28;20446;-58
2023/09/03 04:06:05;;;;;;;4.82;3.90;;;;;;;;;;5073874;28;20082;-58
2023/09/03 04:08:32;;;;;;;4.97;3.97;;;;;;;;;;5073894;28;20049;-58
2023/09/03 04:11:02;;;;;;;6.20;4.13;;;;;;;;;;5059576;28;20036;-58
2023/09/03 04:13:29;;;;;;;5.28;4.00;;;;;;;;;;5074386;28;20048;-58
2023/09/03 04:15:56;;;;;;;4.85;3.92;;;;;;;;;;5073781;28;20075;-59
2023/09/03 04:18:23;;;;;;;6.10;4.00;;;;;;;;;;5072146;28;20422;-58
2023/09/03 04:20:52;;;;;;;4.70;4.00;;;;;;;;;;5073442;28;20052;-58
2023/09/03 04:23:19;;;;;;;4.25;3.58;;;;;;;;;;5070493;28;20094;-58
2023/09/03 04:25:45;;;;;;;4.30;3.55;;;;;;;;;;5072291;28;20090;-58
2023/09/03 04:28:12;;;;;;;5.60;4.38;;;;;;;;;;5072253;28;20064;-58
2023/09/03 04:30:38;;;;;;;7.80;3.85;;;;;;;;;;5073908;28;20044;-58
2023/09/03 04:33:07;;;;;;;4.10;3.20;;;;;;;;;;5065209;28;20418;-59
2023/09/03 04:35:34;;;;;;;5.18;4.30;;;;;;;;;;5072177;28;20515;-58
2023/09/03 04:38:00;;;;;;;7.22;4.63;;;;;;;;;;5073322;28;20044;-58
2023/09/03 04:40:26;;;;;;;5.93;5.32;;;;;;;;;;5073081;28;20041;-58
2023/09/03 04:42:52;;;;;;;4.97;4.47;;;;;;;;;;5073881;28;20040;-57
2023/09/03 04:45:19;;;;;;;4.80;4.07;;;;;;;;;;5071981;28;20048;-58
2023/09/03 04:47:45;;;;;;;5.32;4.47;;;;;;;;;;5073256;28;20161;-58
2023/09/03 04:50:11;;;;;;;7.97;5.00;;;;;;;;;;5073254;28;20461;-58
2023/09/03 04:52:40;;;;;;;5.72;5.05;;;;;;;;;;5072925;28;20040;-58
2023/09/03 04:55:06;;;;;;;6.85;5.68;;;;;;;;;;5072394;28;20127;-58
2023/09/03 04:57:32;;;;;;;5.88;5.28;;;;;;;;;;5073044;28;20072;-57
2023/09/03 04:59:58;;;;;;;6.03;4.90;;;;;;;;;;5073014;28;20143;-57
2023/09/03 05:02:24;;;;;;;6.15;5.15;;;;;;;;;;5072576;28;20098;-58
2023/09/03 05:04:51;;;;;;;8.07;5.43;;;;;;;;;;5071579;28;20051;-58
2023/09/03 05:07:17;;;;;;;5.95;4.97;;;;;;;;;;5072534;28;20045;-58
2023/09/03 05:09:43;;;;;;;6.38;5.03;;;;;;;;;;5071256;28;20052;-58
2023/09/03 05:12:09;;;;;;;7.30;5.80;;;;;;;;;;5072745;28;20047;-58
2023/09/03 05:14:35;;;;;;;7.05;5.28;;;;;;;;;;5067682;28;20052;-57
2023/09/03 05:17:02;;;;;;;6.63;5.28;;;;;;;;;;5068954;28;20043;-57
2023/09/03 05:19:28;;;;;;;6.15;4.70;;;;;;;;;;5068801;28;20063;-58
2023/09/03 05:21:55;;;;;;;5.85;4.60;;;;;;;;;;5070445;28;20036;-57
2023/09/03 05:24:21;;;;;;;6.10;4.80;;;;;;;;;;5073331;28;20165;-57
2023/09/03 05:26:48;;;;;;;5.20;4.30;;;;;;;;;;5072903;28;20049;-57
2023/09/03 05:29:14;;;;;;;5.40;4.25;;;;;;;;;;5071879;28;20059;-58
2023/09/03 05:31:40;;;;;;;5.18;4.43;;;;;;;;;;5072998;28;20036;-57
2023/09/03 05:34:06;;;;;;;6.88;4.53;;;;;;;;;;5072077;28;20124;-57
2023/09/03 05:36:33;;;;;;;6.18;5.57;;;;;;;;;;5072151;28;20384;-57
2023/09/03 05:38:59;;;;;;;6.07;5.47;;;;;;;;;;5071400;28;20072;-57
2023/09/03 05:41:25;;;;;;;5.95;5.00;;;;;;;;;;5072247;28;20082;-57
2023/09/03 05:43:54;;;;;;;6.25;5.47;;;;;;;;;;5072529;28;20041;-58
2023/09/03 05:46:20;;;;;;;6.93;6.20;;;;;;;;;;5072724;28;20404;-58
2023/09/03 05:48:50;;;;;;;6.97;6.20;;;;;;;;;;5073528;28;20566;-57
2023/09/03 05:51:17;;;;;;;8.05;6.57;;;;;;;;;;5071163;28;20183;-57
2023/09/03 05:53:43;;;;;;;8.00;6.45;;;;;;;;;;5074162;28;20429;-57
2023/09/03 05:56:11;;;;;;;7.50;6.30;;;;;;;;;;5070850;28;20085;-58
2023/09/03 05:58:37;;;;;;;6.57;5.88;;;;;;;;;;5072251;28;20069;-57
2023/09/03 06:01:13;;;;;;;7.60;6.50;;;;;;;;;;5072658;28;20033;-57
2023/09/03 06:03:40;;;;;;;6.70;5.78;;;;;;;;;;5071697;28;20056;-57
2023/09/03 06:06:07;;;;;;;7.60;6.45;;;;;;;;;;5071836;28;20040;-57
2023/09/03 06:08:35;;;;;;;7.35;6.55;;;;;;;;;;5076428;28;20040;-57
2023/09/03 06:11:02;;;;;;;8.30;6.68;;;;;;;;;;5070112;28;20037;-57
2023/09/03 06:13:28;;;;;;;8.07;6.47;;;;;;;;;;5072435;28;20056;-57
2023/09/03 06:15:55;;;;;;;8.10;6.90;;;;;;;;;;5072028;28;20059;-57
2023/09/03 06:18:21;;;;;;;9.05;7.80;;;;;;;;;;5066277;28;20119;-57
2023/09/03 06:20:47;;;;;;;11.70;8.30;;;;;;;;;;5070820;28;20044;-58
2023/09/03 06:23:17;;;;;;;10.95;8.50;;;;;;;;;;5071668;28;20089;-57
2023/09/03 06:25:44;;;;;;;11.52;8.82;;;;;;;;;;5071207;28;20116;-58
2023/09/03 06:28:10;;;;;;;10.40;9.02;;;;;;;;;;5069126;28;20057;-58
2023/09/03 06:30:36;;;;;;;12.73;10.15;;;;;;;;;;5072877;28;20052;-57
2023/09/03 06:33:03;;;;;;;12.43;10.30;;;;;;;;;;5070151;28;20484;-57
2023/09/03 06:35:29;;;;;;;13.95;12.40;;;;;;;;;;5071402;28;20067;-58
2023/09/03 06:37:58;;;;;;;18.90;13.00;;;;;;;;;;5071123;28;20041;-58
2023/09/03 06:40:24;;;;;;;17.70;13.75;;;;;;;;;;5071436;28;20060;-58
2023/09/03 06:42:53;;;;;;;18.35;14.65;;;;;;;;;;5071580;28;20082;-57
2023/09/03 06:45:20;;;;;;;20.15;15.35;;;;;;;;;;5069518;28;20055;-58
2023/09/03 06:47:47;;;;;;;18.67;15.43;;;;;;;;;;5071159;28;20455;-57
2023/09/03 06:50:13;;;;;;;21.73;14.93;;;;;;;;;;5071722;28;20129;-58
2023/09/03 06:52:39;;;;;;;18.25;15.20;;;;;;;;;;5070166;28;20044;-58
2023/09/03 06:55:05;;;;;;;21.60;15.65;;;;;;;;;;5071704;28;20120;-57
2023/09/03 06:57:32;;;;;;;17.58;15.57;;;;;;;;;;5071073;28;20348;-58
2023/09/03 06:59:58;;;;;;;23.20;16.63;;;;;;;;;;5061110;28;20091;-58
2023/09/03 07:02:25;;;;;;;21.75;18.05;;;;;;;;;;5069723;28;20170;-58
2023/09/03 07:04:52;;;;;;;27.88;18.42;;;;;;;;;;5062441;28;20052;-58
2023/09/03 07:07:19;;;;;;;20.52;17.13;;;;;;;;;;5064641;28;20119;-58
2023/09/03 07:09:45;;;;;;;19.25;15.50;;;;;;;;;;5077795;28;20043;-58
2023/09/03 07:12:11;;;;;;;20.58;17.27;;;;;;;;;;5068731;28;20392;-58
2023/09/03 07:14:37;;;;;;;21.90;18.15;;;;;;;;;;5069510;28;20066;-59
2023/09/03 07:17:04;;;;;;;24.80;17.98;;;;;;;;;;5072264;28;20097;-58
2023/09/03 07:19:30;;;;;;;20.90;16.95;;;;;;;;;;5070104;28;20116;-60
2023/09/03 07:21:57;;;;;;;20.63;16.50;;;;;;;;;;5068817;28;20480;-60
2023/09/03 07:24:23;;;;;;;18.65;15.85;;;;;;;;;;5071370;28;20040;-60
2023/09/03 07:26:49;;;;;;;16.90;15.00;;;;;;;;;;5070875;28;20408;-59
2023/09/03 07:29:16;;;;;;;17.27;15.38;;;;;;;;;;5069905;28;20049;-60
2023/09/03 07:31:43;;;;;;;16.63;13.98;;;;;;;;;;5064767;28;20047;-59
2023/09/03 07:34:12;;;;;;;17.77;14.05;;;;;;;;;;5070816;28;20495;-59
2023/09/03 07:36:39;;;;;;;16.08;14.18;;;;;;;;;;5070070;28;20051;-60
2023/09/03 07:39:05;;;;;;;19.17;14.35;;;;;;;;;;5055131;28;20037;-60
2023/09/03 07:41:36;;;;;;;16.30;14.40;;;;;;;;;;5070793;28;20052;-59
2023/09/03 07:44:02;;;;;;;17.90;13.88;;;;;;;;;;5070591;28;20110;-60
2023/09/03 07:46:29;;;;;;;14.20;12.70;;;;;;;;;;5072488;28;20040;-60
2023/09/03 07:48:56;;;;;;;15.23;12.45;;;;;;;;;;5069101;28;20138;-59
2023/09/03 07:51:22;;;;;;;14.70;12.07;;;;;;;;;;5070597;28;20437;-60
2023/09/03 07:53:49;;;;;;;16.75;11.88;;;;;;;;;;5069632;28;20074;-59
2023/09/03 07:56:15;;;;;;;13.25;11.48;;;;;;;;;;5069921;28;20041;-59
2023/09/03 07:58:42;;;;;;;12.40;10.30;;;;;;;;;;5072464;28;20051;-59
2023/09/03 08:01:11;;;;;;;11.45;9.95;;;;;;;;;;5071443;28;20472;-59
2023/09/03 08:03:38;;;;;;;11.82;9.20;;;;;;;;;;5101487;28;20052;-59
2023/09/03 08:06:05;;;;;;;16.05;11.23;;;;;;;;;;5068981;28;20036;-59
2023/09/03 08:08:31;;;;;;;14.50;9.45;;;;;;;;;;5069750;28;20113;-59
2023/09/03 08:10:58;;;;;;;13.43;9.50;;;;;;;;;;5068602;28;20041;-59
2023/09/03 08:13:24;;;;;;;10.13;8.43;;;;;;;;;;5070663;28;20040;-59
2023/09/03 08:15:51;;;;;;;13.75;9.20;;;;;;;;;;5072194;28;20066;-59
2023/09/03 08:18:17;;;;;;;14.45;10.13;;;;;;;;;;5069598;28;20040;-59
2023/09/03 08:20:43;;;;;;;14.60;9.98;;;;;;;;;;5065352;28;20586;-61
2023/09/03 08:23:13;;;;;;;13.90;9.77;;;;;;;;;;5070505;28;20108;-59
2023/09/03 08:25:40;;;;;;;14.35;10.57;;;;;;;;;;5069499;28;20045;-60
2023/09/03 08:28:08;;;;;;;14.35;9.57;;;;;;;;;;5069274;28;20060;-60
2023/09/03 08:30:34;;;;;;;10.90;8.55;;;;;;;;;;5068521;28;20041;-59
2023/09/03 08:33:00;;;;;;;10.27;8.55;;;;;;;;;;5064340;28;20076;-59
2023/09/03 08:35:27;;;;;;;10.63;8.52;;;;;;;;;;5070099;28;20401;-59
2023/09/03 08:37:53;;;;;;;12.88;9.55;;;;;;;;;;5069931;28;20039;-59
2023/09/03 08:40:19;;;;;;;13.82;9.10;;;;;;;;;;5069888;28;20448;-59
2023/09/03 08:42:49;;;;;;;14.73;7.90;;;;;;;;;;5070071;28;20051;-59
2023/09/03 08:45:18;;;;;;;12.90;7.85;;;;;;;;;;5071308;28;20048;-60
2023/09/03 08:47:45;;;;;;;8.63;7.03;;;;;;;;;;5069550;28;20053;-60
2023/09/03 08:50:12;;;;;;;12.07;9.35;;;;;;;;;;5088777;28;20416;-59
2023/09/03 08:52:39;;;;;;;9.93;8.05;;;;;;;;;;5072410;28;20123;-59
2023/09/03 08:55:05;;;;;;;15.88;6.93;;;;;;;;;;5072140;28;20460;-60
2023/09/03 08:57:34;;;;;;;9.43;6.90;;;;;;;;;;5072247;28;20054;-59
2023/09/03 09:00:07;;;;;;;9.23;7.25;;;;;;;;;;5073205;28;20045;-59
2023/09/03 09:02:34;;;;;;;8.93;5.50;;;;;;;;;;5066800;28;20473;-59
2023/09/03 09:05:01;;;;;;;7.05;4.63;;;;;;;;;;5071674;28;20044;-59
2023/09/03 09:07:28;;;;;;;10.75;5.38;;;;;;;;;;5067213;28;20054;-59
2023/09/03 09:09:58;;;;;;;10.40;5.50;;;;;;;;;;5060888;28;20037;-59
2023/09/03 09:12:31;;;;;;;10.70;5.50;;;;;;;;;;5066111;28;20048;-59
2023/09/03 09:15:00;;;;;;;8.40;4.82;;;;;;;;;;5067068;28;20041;-59
2023/09/03 09:17:29;;;;;;;10.02;4.90;;;;;;;;;;5071829;28;20052;-59
2023/09/03 09:19:59;;;;;;;8.30;4.97;;;;;;;;;;5065180;28;20083;-59
2023/09/03 09:22:26;;;;;;;7.40;4.80;;;;;;;;;;5070795;28;20115;-59
2023/09/03 09:24:52;;;;;;;8.52;5.60;;;;;;;;;;5073074;28;20047;-59
2023/09/03 09:27:19;;;;;;;8.60;5.38;;;;;;;;;;5072177;28;20041;-59
2023/09/03 09:29:46;;;;;;;6.72;4.20;;;;;;;;;;5069792;28;20843;-59
2023/09/03 09:32:22;;;;;;;7.63;3.80;;;;;;;;;;5065828;28;20049;-59
2023/09/03 09:34:48;;;;;;;6.80;3.50;;;;;;;;;;5070936;28;20071;-59
2023/09/03 09:37:15;;;;;;;6.07;2.53;;;;;;;;;;5072600;28;20075;-59
2023/09/03 09:39:45;;;;;;;7.63;3.47;;;;;;;;;;5072860;28;20115;-59
2023/09/03 09:42:18;;;;;;;6.43;3.00;;;;;;;;;;5071810;28;20071;-59
2023/09/03 09:44:53;;;;;;;6.80;2.92;;;;;;;;;;5071318;28;20120;-59
2023/09/03 09:47:20;;;;;;;6.75;2.20;;;;;;;;;;5071194;28;20063;-59
2023/09/03 09:49:47;;;;;;;5.03;2.30;;;;;;;;;;5068526;28;20093;-59
2023/09/03 09:52:14;;;;;;;4.47;2.22;;;;;;;;;;5070737;28;20106;-59
2023/09/03 09:54:42;;;;;;;6.10;2.33;;;;;;;;;;5070404;28;20040;-59
2023/09/03 09:57:23;;;;;;;4.63;2.00;;;;;;;;;;5059860;28;20048;-60
2023/09/03 09:59:53;;;;;;;3.92;2.20;;;;;;;;;;5068000;28;20464;-60
2023/09/03 10:02:21;;;;;;;4.45;2.03;;;;;;;;;;5068574;28;20056;-60
2023/09/03 10:04:47;;;;;;;4.53;1.70;;;;;;;;;;5068375;28;20708;-60
2023/09/03 10:07:14;;;;;;;4.18;1.40;;;;;;;;;;5059644;28;20475;-59
2023/09/03 10:09:41;;;;;;;5.20;1.90;;;;;;;;;;5070650;28;20044;-60
2023/09/03 10:12:09;;;;;;;6.28;1.67;;;;;;;;;;5072156;28;20029;-60
2023/09/03 10:14:35;;;;;;;5.05;2.17;;;;;;;;;;5067532;28;20040;-60
2023/09/03 10:17:03;;;;;;;4.90;1.80;;;;;;;;;;5063922;28;20044;-61
2023/09/03 10:19:37;;;;;;;4.90;2.05;;;;;;;;;;5068343;28;20112;-60
2023/09/03 10:22:06;;;;;;;4.97;1.85;;;;;;;;;;5064922;28;20053;-60
2023/09/03 10:24:33;;;;;;;4.20;2.17;;;;;;;;;;5069550;28;20115;-60
2023/09/03 10:27:01;;;;;;;5.80;2.05;;;;;;;;;;5071974;28;20539;-60
2023/09/03 10:29:29;;;;;;;3.95;1.70;;;;;;;;;;5070783;28;20063;-59
2023/09/03 10:31:55;;;;;;;3.80;2.03;;;;;;;;;;5070605;28;20033;-60
2023/09/03 10:34:21;;;;;;;4.45;1.75;;;;;;;;;;5062584;28;20040;-60
2023/09/03 10:37:23;;;;;;;6.10;2.08;;;;;;;;;;5068942;28;20036;-60
2023/09/03 10:39:49;;;;;;;3.15;1.60;;;;;;;;;;5069228;28;20369;-60
2023/09/03 10:42:18;;;;;;;5.00;1.70;;;;;;;;;;5063747;28;20103;-60
2023/09/03 10:44:51;;;;;;;3.80;1.65;;;;;;;;;;5075966;28;20678;-60
2023/09/03 10:47:18;;;;;;;5.90;1.70;;;;;;;;;;5068748;28;20519;-60
2023/09/03 10:49:45;;;;;;;4.78;1.73;;;;;;;;;;5069991;28;20441;-61
2023/09/03 10:52:34;;;;;;;6.63;2.30;;;;;;;;;;5070516;28;20131;-60
2023/09/03 10:55:16;;;;;;;4.75;1.80;;;;;;;;;;5071338;28;20052;-60
2023/09/03 10:57:43;;;;;;;6.32;1.75;;;;;;;;;;5070796;28;20053;-60
2023/09/03 11:00:10;;;;;;;3.17;1.52;;;;;;;;;;5066890;28;20052;-60
2023/09/03 11:02:37;;;;;;;4.75;1.55;;;;;;;;;;5070946;28;20452;-60
2023/09/03 11:05:09;;;;;;;4.95;1.30;;;;;;;;;;5070353;28;20437;-60
2023/09/03 11:07:35;;;;;;;3.80;1.40;;;;;;;;;;5068506;28;20104;-60
2023/09/03 11:10:25;;;;;;;3.00;0.90;;;;;;;;;;5069497;28;20056;-60
2023/09/03 11:12:52;;;;;;;2.28;0.90;;;;;;;;;;5061618;28;20128;-60
2023/09/03 11:15:18;;;;;;;3.03;0.98;;;;;;;;;;5067008;28;20576;-60
2023/09/03 11:17:55;;;;;;;2.90;1.27;;;;;;;;;;5070437;28;20068;-60
2023/09/03 11:20:29;;;;;;;6.55;1.65;;;;;;;;;;5069329;28;20037;-60
2023/09/03 11:22:56;;;;;;;5.00;1.25;;;;;;;;;;5063618;28;20051;-60
2023/09/03 11:25:32;;;;;;;3.40;1.35;;;;;;;;;;5069618;28;20425;-60
2023/09/03 11:27:59;;;;;;;1.90;1.02;;;;;;;;;;5068909;28;20079;-60
2023/09/03 11:30:26;;;;;;;3.50;1.13;;;;;;;;;;5070439;28;20075;-60
2023/09/03 11:32:52;;;;;;;6.05;1.30;;;;;;;;;;5070995;28;20056;-60
2023/09/03 11:35:18;;;;;;;2.85;0.93;;;;;;;;;;5063529;28;20048;-60
2023/09/03 11:37:45;;;;;;;3.03;1.10;;;;;;;;;;5069079;28;20067;-60
2023/09/03 11:40:12;;;;;;;7.07;1.10;;;;;;;;;;5062496;28;20389;-59
2023/09/03 11:42:42;;;;;;;3.10;1.33;;;;;;;;;;5061490;28;20128;-60
2023/09/03 11:45:11;;;;;;;3.33;1.27;;;;;;;;;;5055318;28;20075;-60
2023/09/03 11:47:40;;;;;;;3.13;1.08;;;;;;;;;;5057462;28;20091;-60
2023/09/03 11:50:13;;;;;;;2.50;1.20;;;;;;;;;;5064698;28;20045;-60
2023/09/03 11:52:40;;;;;;;6.03;1.35;;;;;;;;;;5064624;28;20045;-60
2023/09/03 11:55:06;;;;;;;4.50;1.40;;;;;;;;;;5067980;28;20136;-60
2023/09/03 11:57:36;;;;;;;3.60;1.13;;;;;;;;;;5069900;28;20033;-59
2023/09/03 12:00:03;;;;;;;3.88;1.50;;;;;;;;;;5063173;28;20040;-59
2023/09/03 12:02:29;;;;;;;3.88;1.15;;;;;;;;;;5060744;28;20538;-60
2023/09/03 12:04:56;;;;;;;5.15;1.23;;;;;;;;;;5057395;28;20095;-60
2023/09/03 12:07:22;;;;;;;6.80;1.55;;;;;;;;;;5060516;28;20048;-62
2023/09/03 12:09:51;;;;;;;3.28;1.20;;;;;;;;;;5056309;28;20110;-60
2023/09/03 12:12:18;;;;;;;3.78;1.45;;;;;;;;;;5068100;28;20040;-60
2023/09/03 12:14:45;;;;;;;4.43;1.40;;;;;;;;;;5057054;28;20468;-60
2023/09/03 12:17:11;;;;;;;3.60;1.23;;;;;;;;;;5060320;28;20158;-61
2023/09/03 12:19:38;;;;;;;2.72;1.10;;;;;;;;;;5055805;28;20045;-60
2023/09/03 12:22:04;;;;;;;3.67;1.00;;;;;;;;;;5065259;28;20041;-61
2023/09/03 12:24:31;;;;;;;2.33;0.95;;;;;;;;;;5066029;28;20033;-60
2023/09/03 12:27:04;;;;;;;3.75;1.15;;;;;;;;;;5067366;28;20055;-60
2023/09/03 12:29:36;;;;;;;3.38;0.90;;;;;;;;;;5067641;28;20119;-60
2023/09/03 12:32:03;;;;;;;3.97;1.10;;;;;;;;;;5074146;28;20369;-60
2023/09/03 12:34:36;;;;;;;3.40;1.00;;;;;;;;;;5074269;28;20032;-60
2023/09/03 12:37:02;;;;;;;2.83;0.90;;;;;;;;;;5072144;28;20047;-60
2023/09/03 12:39:31;;;;;;;2.88;1.13;;;;;;;;;;5073864;28;20037;-60
2023/09/03 12:41:58;;;;;;;2.45;0.88;;;;;;;;;;5073046;28;20044;-61
2023/09/03 12:44:26;;;;;;;3.88;1.15;;;;;;;;;;5069467;28;20039;-60
2023/09/03 12:46:53;;;;;;;2.30;0.68;;;;;;;;;;5072566;28;20074;-65
2023/09/03 12:49:20;;;;;;;3.22;0.95;;;;;;;;;;5069064;28;20048;-60
2023/09/03 12:51:47;;;;;;;2.30;0.80;;;;;;;;;;5071320;28;20124;-60
2023/09/03 12:54:14;;;;;;;2.50;0.80;;;;;;;;;;5073485;28;20476;-60
2023/09/03 12:56:41;;;;;;;2.03;0.90;;;;;;;;;;5072708;28;20040;-60
2023/09/03 12:59:07;;;;;;;4.38;1.08;;;;;;;;;;5067391;28;20044;-60
2023/09/03 13:01:34;;;;;;;2.28;0.70;;;;;;;;;;5073417;28;20040;-60
2023/09/03 13:04:00;;;;;;;4.38;1.25;;;;;;;;;;5071817;28;20128;-60
2023/09/03 13:06:26;;;;;;;3.33;0.90;;;;;;;;;;5072008;28;20437;-60
2023/09/03 13:08:53;;;;;;;2.75;0.90;;;;;;;;;;5072469;28;20037;-60
2023/09/03 13:11:19;;;;;;;2.85;0.95;;;;;;;;;;5072248;28;20036;-60
2023/09/03 13:13:49;;;;;;;1.70;0.80;;;;;;;;;;5072550;28;20055;-59
2023/09/03 13:16:19;;;;;;;3.47;1.02;;;;;;;;;;5072716;28;20044;-60
2023/09/03 13:18:45;;;;;;;1.77;0.73;;;;;;;;;;5067362;28;20060;-60
2023/09/03 13:21:12;;;;;;;2.35;0.95;;;;;;;;;;5073073;28;20828;-59
2023/09/03 13:23:39;;;;;;;1.98;0.90;;;;;;;;;;5072219;28;20533;-60
2023/09/03 13:26:06;;;;;;;2.05;0.70;;;;;;;;;;5067185;28;20040;-60
2023/09/03 13:28:32;;;;;;;2.90;0.98;;;;;;;;;;5073092;28;20197;-60
2023/09/03 13:31:00;;;;;;;1.73;0.70;;;;;;;;;;5072908;28;20056;-59
2023/09/03 13:33:26;;;;;;;3.42;0.75;;;;;;;;;;5071666;28;20492;-60
2023/09/03 13:35:53;;;;;;;2.08;1.00;;;;;;;;;;5072763;28;20044;-60
2023/09/03 13:38:19;;;;;;;3.58;1.02;;;;;;;;;;5071489;28;20139;-60
2023/09/03 13:40:47;;;;;;;3.15;0.90;;;;;;;;;;5063610;28;20136;-60
2023/09/03 13:43:13;;;;;;;4.50;0.88;;;;;;;;;;5072130;28;20063;-59
2023/09/03 13:45:39;;;;;;;1.98;0.82;;;;;;;;;;5068066;28;20089;-60
2023/09/03 13:48:06;;;;;;;2.45;0.95;;;;;;;;;;5070878;28;20048;-60
2023/09/03 13:50:32;;;;;;;3.30;1.00;;;;;;;;;;5070782;28;20499;-60
2023/09/03 13:52:59;;;;;;;2.15;0.90;;;;;;;;;;5072487;28;20515;-60
2023/09/03 13:55:26;;;;;;;3.00;1.15;;;;;;;;;;5066592;28;20048;-60
2023/09/03 13:57:55;;;;;;;4.20;1.00;;;;;;;;;;5071498;28;20044;-60
2023/09/03 14:00:22;;;;;;;3.67;1.00;;;;;;;;;;5071604;28;20369;-64
2023/09/03 14:02:48;;;;;;;2.92;1.05;;;;;;;;;;5069164;28;20589;-60
2023/09/03 14:05:15;;;;;;;2.80;1.02;;;;;;;;;;5072075;28;20048;-60
2023/09/03 14:07:41;;;;;;;2.10;0.90;;;;;;;;;;5070961;28;20037;-60
2023/09/03 14:10:07;;;;;;;4.80;1.17;;;;;;;;;;5071394;28;20488;-59
2023/09/03 14:12:34;;;;;;;2.53;0.90;;;;;;;;;;5070989;28;20107;-60
2023/09/03 14:15:00;;;;;;;2.58;0.93;;;;;;;;;;5071271;28;20404;-59
2023/09/03 14:17:26;;;;;;;1.90;0.75;;;;;;;;;;5071384;28;20051;-60
2023/09/03 14:19:52;;;;;;;2.30;0.80;;;;;;;;;;5069987;28;20124;-59
2023/09/03 14:22:19;;;;;;;5.88;1.00;;;;;;;;;;5070329;28;20040;-59
2023/09/03 14:24:45;;;;;;;1.90;0.70;;;;;;;;;;5074819;28;20127;-60
2023/09/03 14:27:14;;;;;;;2.35;1.00;;;;;;;;;;5069717;28;20044;-60
2023/09/03 14:29:41;;;;;;;2.53;0.90;;;;;;;;;;5070847;28;20492;-60
2023/09/03 14:32:07;;;;;;;4.82;1.15;;;;;;;;;;5071733;28;20094;-60
2023/09/03 14:34:34;;;;;;;3.55;1.02;;;;;;;;;;5071169;28;20134;-60
2023/09/03 14:37:00;;;;;;;2.20;0.90;;;;;;;;;;5070470;28;20138;-60
2023/09/03 14:39:26;;;;;;;2.88;1.40;;;;;;;;;;5071000;28;20116;-60